sensor_id;sensor_type;location;lat;lon;timestamp;P1;durP1;ratioP1;P2;durP2;ratioP2
51066;SDS011;37112;45.892;-123.962;2023-02-26T00:00:25;8.70;;;2.20;;
51066;SDS011;37112;45.892;-123.962;2023-02-26T00:02:59;15.60;;;3.70;;
51066;SDS011;37112;45.892;-123.962;2023-02-26T00:05:13;9.40;;;2.50;;
51066;SDS011;37112;45.892;-123.962;2023-02-26T00:07:26;6.40;;;2.20;;
51066;SDS011;37112;45.892;-123.962;2023-02-26T00:09:40;4.70;;;1.70;;
51066;SDS011;37112;45.892;-123.962;2023-02-26T00:11:58;9.10;;;2.70;;
51066;SDS011;37112;45.892;-123.962;2023-02-26T00:14:12;3.50;;;1.60;;
51066;SDS011;37112;45.892;-123.962;2023-02-26T00:16:28;6.50;;;1.30;;
51066;SDS011;37112;45.892;-123.962;2023-02-26T00:18:44;9.20;;;2.00;;
51066;SDS011;37112;45.892;-123.962;2023-02-26T00:20:59;7.80;;;2.00;;
51066;SDS011;37112;45.892;-123.962;2023-02-26T00:23:13;3.50;;;1.50;;
51066;SDS011;37112;45.892;-123.962;2023-02-26T00:25:28;5.90;;;1.70;;
51066;SDS011;37112;45.892;-123.962;2023-02-26T00:27:43;7.50;;;1.50;;
51066;SDS011;37112;45.892;-123.962;2023-02-26T00:29:58;10.40;;;2.40;;
51066;SDS011;37112;45.892;-123.962;2023-02-26T00:32:12;7.40;;;2.40;;
51066;SDS011;37112;45.892;-123.962;2023-02-26T00:34:27;8.70;;;1.70;;
51066;SDS011;37112;45.892;-123.962;2023-02-26T00:36:43;10.80;;;2.90;;
51066;SDS011;37112;45.892;-123.962;2023-02-26T00:39:04;8.00;;;2.80;;
51066;SDS011;37112;45.892;-123.962;2023-02-26T00:43:36;8.70;;;1.50;;
51066;SDS011;37112;45.892;-123.962;2023-02-26T00:45:54;3.40;;;1.20;;
51066;SDS011;37112;45.892;-123.962;2023-02-26T00:48:26;4.70;;;1.60;;
51066;SDS011;37112;45.892;-123.962;2023-02-26T00:50:48;6.20;;;2.00;;
51066;SDS011;37112;45.892;-123.962;2023-02-26T00:53:11;5.20;;;1.40;;
51066;SDS011;37112;45.892;-123.962;2023-02-26T00:55:31;5.80;;;1.50;;
51066;SDS011;37112;45.892;-123.962;2023-02-26T00:57:45;7.50;;;2.20;;
51066;SDS011;37112;45.892;-123.962;2023-02-26T00:59:58;6.40;;;1.50;;
51066;SDS011;37112;45.892;-123.962;2023-02-26T01:02:15;5.40;;;1.70;;
51066;SDS011;37112;45.892;-123.962;2023-02-26T01:04:28;4.80;;;1.70;;
51066;SDS011;37112;45.892;-123.962;2023-02-26T01:06:44;5.30;;;1.40;;
51066;SDS011;37112;45.892;-123.962;2023-02-26T01:09:01;6.90;;;1.90;;
51066;SDS011;37112;45.892;-123.962;2023-02-26T01:11:20;8.30;;;1.90;;
51066;SDS011;37112;45.892;-123.962;2023-02-26T01:13:34;14.50;;;1.80;;
51066;SDS011;37112;45.892;-123.962;2023-02-26T01:15:49;6.60;;;2.10;;
51066;SDS011;37112;45.892;-123.962;2023-02-26T01:18:10;7.50;;;2.50;;
51066;SDS011;37112;45.892;-123.962;2023-02-26T01:20:28;8.90;;;3.00;;
51066;SDS011;37112;45.892;-123.962;2023-02-26T01:22:47;10.70;;;4.10;;
51066;SDS011;37112;45.892;-123.962;2023-02-26T01:25:07;16.10;;;3.80;;
51066;SDS011;37112;45.892;-123.962;2023-02-26T01:27:23;5.40;;;2.50;;
51066;SDS011;37112;45.892;-123.962;2023-02-26T01:29:37;7.40;;;2.30;;
51066;SDS011;37112;45.892;-123.962;2023-02-26T01:31:52;12.10;;;2.80;;
51066;SDS011;37112;45.892;-123.962;2023-02-26T01:34:10;6.80;;;3.20;;
51066;SDS011;37112;45.892;-123.962;2023-02-26T01:36:30;9.90;;;2.10;;
51066;SDS011;37112;45.892;-123.962;2023-02-26T01:38:50;5.90;;;2.20;;
51066;SDS011;37112;45.892;-123.962;2023-02-26T01:41:19;5.20;;;1.90;;
51066;SDS011;37112;45.892;-123.962;2023-02-26T01:43:38;6.40;;;2.00;;
51066;SDS011;37112;45.892;-123.962;2023-02-26T01:46:02;3.90;;;1.90;;
51066;SDS011;37112;45.892;-123.962;2023-02-26T01:48:26;9.70;;;2.80;;
51066;SDS011;37112;45.892;-123.962;2023-02-26T01:50:47;10.00;;;2.60;;
51066;SDS011;37112;45.892;-123.962;2023-02-26T01:53:23;9.60;;;2.30;;
51066;SDS011;37112;45.892;-123.962;2023-02-26T01:55:36;8.50;;;2.00;;
51066;SDS011;37112;45.892;-123.962;2023-02-26T01:57:53;5.10;;;1.80;;
51066;SDS011;37112;45.892;-123.962;2023-02-26T02:00:13;6.80;;;2.80;;
51066;SDS011;37112;45.892;-123.962;2023-02-26T02:02:28;4.20;;;2.20;;
51066;SDS011;37112;45.892;-123.962;2023-02-26T02:04:42;12.70;;;2.60;;
51066;SDS011;37112;45.892;-123.962;2023-02-26T02:06:59;8.90;;;2.80;;
51066;SDS011;37112;45.892;-123.962;2023-02-26T02:09:13;6.50;;;2.50;;
51066;SDS011;37112;45.892;-123.962;2023-02-26T02:11:26;7.40;;;2.00;;
51066;SDS011;37112;45.892;-123.962;2023-02-26T02:13:47;14.40;;;5.00;;
51066;SDS011;37112;45.892;-123.962;2023-02-26T02:16:14;12.60;;;3.90;;
51066;SDS011;37112;45.892;-123.962;2023-02-26T02:18:36;9.90;;;3.10;;
51066;SDS011;37112;45.892;-123.962;2023-02-26T02:23:34;5.80;;;2.50;;
51066;SDS011;37112;45.892;-123.962;2023-02-26T02:25:58;11.60;;;2.60;;
51066;SDS011;37112;45.892;-123.962;2023-02-26T02:28:48;5.00;;;2.30;;
51066;SDS011;37112;45.892;-123.962;2023-02-26T02:31:20;6.40;;;2.20;;
51066;SDS011;37112;45.892;-123.962;2023-02-26T02:33:38;8.10;;;3.10;;
51066;SDS011;37112;45.892;-123.962;2023-02-26T02:35:59;9.00;;;4.70;;
51066;SDS011;37112;45.892;-123.962;2023-02-26T02:38:20;12.80;;;2.60;;
51066;SDS011;37112;45.892;-123.962;2023-02-26T02:40:41;12.30;;;3.90;;
51066;SDS011;37112;45.892;-123.962;2023-02-26T02:42:58;9.10;;;2.70;;
51066;SDS011;37112;45.892;-123.962;2023-02-26T02:45:17;7.00;;;3.10;;
51066;SDS011;37112;45.892;-123.962;2023-02-26T02:47:34;9.10;;;3.00;;
51066;SDS011;37112;45.892;-123.962;2023-02-26T02:49:51;5.90;;;2.70;;
51066;SDS011;37112;45.892;-123.962;2023-02-26T02:52:14;5.80;;;1.90;;
51066;SDS011;37112;45.892;-123.962;2023-02-26T02:56:48;4.30;;;1.90;;
51066;SDS011;37112;45.892;-123.962;2023-02-26T02:59:09;4.30;;;1.30;;
51066;SDS011;37112;45.892;-123.962;2023-02-26T03:01:27;6.60;;;1.40;;
51066;SDS011;37112;45.892;-123.962;2023-02-26T03:03:46;2.00;;;1.20;;
51066;SDS011;37112;45.892;-123.962;2023-02-26T03:06:06;3.90;;;1.40;;
51066;SDS011;37112;45.892;-123.962;2023-02-26T03:08:21;3.20;;;1.70;;
51066;SDS011;37112;45.892;-123.962;2023-02-26T03:10:36;2.40;;;1.30;;
51066;SDS011;37112;45.892;-123.962;2023-02-26T03:12:51;6.70;;;1.40;;
51066;SDS011;37112;45.892;-123.962;2023-02-26T03:15:05;3.10;;;2.10;;
51066;SDS011;37112;45.892;-123.962;2023-02-26T03:17:22;2.70;;;1.10;;
51066;SDS011;37112;45.892;-123.962;2023-02-26T03:19:52;5.20;;;1.10;;
51066;SDS011;37112;45.892;-123.962;2023-02-26T03:22:18;2.90;;;1.10;;
51066;SDS011;37112;45.892;-123.962;2023-02-26T03:24:44;4.80;;;1.40;;
51066;SDS011;37112;45.892;-123.962;2023-02-26T03:27:02;1.80;;;0.90;;
51066;SDS011;37112;45.892;-123.962;2023-02-26T03:29:25;3.30;;;1.20;;
51066;SDS011;37112;45.892;-123.962;2023-02-26T03:31:45;1.20;;;0.80;;
51066;SDS011;37112;45.892;-123.962;2023-02-26T03:34:06;3.50;;;1.30;;
51066;SDS011;37112;45.892;-123.962;2023-02-26T03:36:23;4.70;;;1.60;;
51066;SDS011;37112;45.892;-123.962;2023-02-26T03:38:54;8.50;;;2.60;;
51066;SDS011;37112;45.892;-123.962;2023-02-26T03:41:16;4.20;;;2.30;;
51066;SDS011;37112;45.892;-123.962;2023-02-26T03:43:36;20.60;;;8.80;;
51066;SDS011;37112;45.892;-123.962;2023-02-26T03:45:55;5.30;;;2.80;;
51066;SDS011;37112;45.892;-123.962;2023-02-26T03:48:17;6.30;;;1.90;;
51066;SDS011;37112;45.892;-123.962;2023-02-26T03:50:36;6.10;;;3.20;;
51066;SDS011;37112;45.892;-123.962;2023-02-26T03:53:11;2.70;;;2.20;;
51066;SDS011;37112;45.892;-123.962;2023-02-26T03:55:32;3.20;;;1.70;;
51066;SDS011;37112;45.892;-123.962;2023-02-26T03:58:15;2.10;;;1.20;;
51066;SDS011;37112;45.892;-123.962;2023-02-26T04:00:40;5.60;;;1.30;;
51066;SDS011;37112;45.892;-123.962;2023-02-26T04:02:58;1.60;;;1.20;;
51066;SDS011;37112;45.892;-123.962;2023-02-26T04:05:17;3.40;;;1.10;;
51066;SDS011;37112;45.892;-123.962;2023-02-26T04:07:33;1.80;;;1.30;;
51066;SDS011;37112;45.892;-123.962;2023-02-26T04:09:46;2.70;;;1.10;;
51066;SDS011;37112;45.892;-123.962;2023-02-26T04:12:03;7.70;;;1.30;;
51066;SDS011;37112;45.892;-123.962;2023-02-26T04:14:20;4.50;;;1.20;;
51066;SDS011;37112;45.892;-123.962;2023-02-26T04:16:33;2.60;;;1.10;;
51066;SDS011;37112;45.892;-123.962;2023-02-26T04:18:47;3.00;;;1.20;;
51066;SDS011;37112;45.892;-123.962;2023-02-26T04:21:01;3.90;;;1.40;;
51066;SDS011;37112;45.892;-123.962;2023-02-26T04:23:15;6.70;;;1.20;;
51066;SDS011;37112;45.892;-123.962;2023-02-26T04:25:28;5.70;;;1.80;;
51066;SDS011;37112;45.892;-123.962;2023-02-26T04:27:42;5.20;;;1.30;;
51066;SDS011;37112;45.892;-123.962;2023-02-26T04:29:56;6.40;;;1.60;;
51066;SDS011;37112;45.892;-123.962;2023-02-26T04:32:10;11.20;;;2.10;;
51066;SDS011;37112;45.892;-123.962;2023-02-26T04:34:25;6.60;;;2.30;;
51066;SDS011;37112;45.892;-123.962;2023-02-26T04:36:38;10.20;;;3.60;;
51066;SDS011;37112;45.892;-123.962;2023-02-26T04:38:52;16.80;;;2.30;;
51066;SDS011;37112;45.892;-123.962;2023-02-26T04:41:05;11.20;;;1.80;;
51066;SDS011;37112;45.892;-123.962;2023-02-26T04:43:20;5.60;;;1.70;;
51066;SDS011;37112;45.892;-123.962;2023-02-26T04:45:48;7.20;;;1.70;;
51066;SDS011;37112;45.892;-123.962;2023-02-26T04:48:02;10.30;;;4.20;;
51066;SDS011;37112;45.892;-123.962;2023-02-26T04:50:16;3.40;;;1.10;;
51066;SDS011;37112;45.892;-123.962;2023-02-26T04:52:30;2.00;;;1.10;;
51066;SDS011;37112;45.892;-123.962;2023-02-26T04:54:44;2.50;;;1.60;;
51066;SDS011;37112;45.892;-123.962;2023-02-26T04:56:57;1.80;;;1.10;;
51066;SDS011;37112;45.892;-123.962;2023-02-26T04:59:11;1.90;;;1.30;;
51066;SDS011;37112;45.892;-123.962;2023-02-26T05:01:25;4.70;;;1.10;;
51066;SDS011;37112;45.892;-123.962;2023-02-26T05:03:38;5.10;;;1.40;;
51066;SDS011;37112;45.892;-123.962;2023-02-26T05:05:52;4.70;;;1.40;;
51066;SDS011;37112;45.892;-123.962;2023-02-26T05:08:06;5.50;;;1.10;;
51066;SDS011;37112;45.892;-123.962;2023-02-26T05:10:20;3.40;;;0.90;;
51066;SDS011;37112;45.892;-123.962;2023-02-26T05:12:34;4.80;;;1.30;;
51066;SDS011;37112;45.892;-123.962;2023-02-26T05:14:47;4.90;;;1.50;;
51066;SDS011;37112;45.892;-123.962;2023-02-26T05:17:01;3.50;;;1.20;;
51066;SDS011;37112;45.892;-123.962;2023-02-26T05:19:15;7.40;;;2.10;;
51066;SDS011;37112;45.892;-123.962;2023-02-26T05:21:29;2.60;;;1.10;;
51066;SDS011;37112;45.892;-123.962;2023-02-26T05:23:42;1.40;;;1.20;;
51066;SDS011;37112;45.892;-123.962;2023-02-26T05:25:56;1.40;;;1.20;;
51066;SDS011;37112;45.892;-123.962;2023-02-26T05:28:10;1.60;;;1.10;;
51066;SDS011;37112;45.892;-123.962;2023-02-26T05:30:24;6.80;;;2.90;;
51066;SDS011;37112;45.892;-123.962;2023-02-26T05:32:38;4.90;;;1.60;;
51066;SDS011;37112;45.892;-123.962;2023-02-26T05:34:52;3.00;;;1.60;;
51066;SDS011;37112;45.892;-123.962;2023-02-26T05:37:05;2.90;;;0.90;;
51066;SDS011;37112;45.892;-123.962;2023-02-26T05:39:19;5.20;;;1.80;;
51066;SDS011;37112;45.892;-123.962;2023-02-26T05:41:32;1.90;;;1.10;;
51066;SDS011;37112;45.892;-123.962;2023-02-26T05:43:46;2.20;;;1.30;;
51066;SDS011;37112;45.892;-123.962;2023-02-26T05:46:00;2.80;;;1.40;;
51066;SDS011;37112;45.892;-123.962;2023-02-26T05:48:13;9.60;;;6.50;;
51066;SDS011;37112;45.892;-123.962;2023-02-26T05:50:27;4.20;;;1.90;;
51066;SDS011;37112;45.892;-123.962;2023-02-26T05:52:40;3.60;;;3.00;;
51066;SDS011;37112;45.892;-123.962;2023-02-26T05:54:54;6.10;;;4.40;;
51066;SDS011;37112;45.892;-123.962;2023-02-26T05:57:08;4.70;;;1.70;;
51066;SDS011;37112;45.892;-123.962;2023-02-26T05:59:22;3.40;;;1.20;;
51066;SDS011;37112;45.892;-123.962;2023-02-26T06:01:35;5.40;;;1.40;;
51066;SDS011;37112;45.892;-123.962;2023-02-26T06:03:49;5.10;;;3.00;;
51066;SDS011;37112;45.892;-123.962;2023-02-26T06:06:03;4.20;;;1.50;;
51066;SDS011;37112;45.892;-123.962;2023-02-26T06:08:17;3.10;;;1.40;;
51066;SDS011;37112;45.892;-123.962;2023-02-26T06:10:30;5.60;;;2.50;;
51066;SDS011;37112;45.892;-123.962;2023-02-26T06:12:44;5.90;;;1.40;;
51066;SDS011;37112;45.892;-123.962;2023-02-26T06:14:57;3.60;;;1.10;;
51066;SDS011;37112;45.892;-123.962;2023-02-26T06:17:11;3.60;;;1.80;;
51066;SDS011;37112;45.892;-123.962;2023-02-26T06:19:24;3.30;;;1.50;;
51066;SDS011;37112;45.892;-123.962;2023-02-26T06:21:38;5.30;;;1.20;;
51066;SDS011;37112;45.892;-123.962;2023-02-26T06:23:51;3.60;;;1.70;;
51066;SDS011;37112;45.892;-123.962;2023-02-26T06:26:04;2.90;;;1.20;;
51066;SDS011;37112;45.892;-123.962;2023-02-26T06:28:18;6.10;;;4.90;;
51066;SDS011;37112;45.892;-123.962;2023-02-26T06:30:33;4.00;;;1.70;;
51066;SDS011;37112;45.892;-123.962;2023-02-26T06:32:46;2.70;;;1.10;;
51066;SDS011;37112;45.892;-123.962;2023-02-26T06:34:59;2.60;;;1.40;;
51066;SDS011;37112;45.892;-123.962;2023-02-26T06:37:13;1.40;;;1.00;;
51066;SDS011;37112;45.892;-123.962;2023-02-26T06:39:27;3.00;;;1.50;;
51066;SDS011;37112;45.892;-123.962;2023-02-26T06:41:40;3.50;;;1.30;;
51066;SDS011;37112;45.892;-123.962;2023-02-26T06:43:54;2.90;;;1.70;;
51066;SDS011;37112;45.892;-123.962;2023-02-26T06:46:07;0.90;;;0.90;;
51066;SDS011;37112;45.892;-123.962;2023-02-26T06:48:20;1.10;;;0.80;;
51066;SDS011;37112;45.892;-123.962;2023-02-26T06:50:34;1.70;;;0.70;;
51066;SDS011;37112;45.892;-123.962;2023-02-26T06:52:47;1.70;;;1.00;;
51066;SDS011;37112;45.892;-123.962;2023-02-26T06:55:01;3.10;;;2.10;;
51066;SDS011;37112;45.892;-123.962;2023-02-26T06:57:15;4.40;;;1.10;;
51066;SDS011;37112;45.892;-123.962;2023-02-26T06:59:29;1.60;;;0.90;;
51066;SDS011;37112;45.892;-123.962;2023-02-26T07:01:42;3.10;;;0.90;;
51066;SDS011;37112;45.892;-123.962;2023-02-26T07:03:55;2.10;;;0.70;;
51066;SDS011;37112;45.892;-123.962;2023-02-26T07:06:09;1.60;;;0.60;;
51066;SDS011;37112;45.892;-123.962;2023-02-26T07:08:43;2.60;;;0.90;;
51066;SDS011;37112;45.892;-123.962;2023-02-26T07:10:56;1.90;;;0.80;;
51066;SDS011;37112;45.892;-123.962;2023-02-26T07:13:10;1.20;;;0.70;;
51066;SDS011;37112;45.892;-123.962;2023-02-26T07:15:24;2.30;;;0.80;;
51066;SDS011;37112;45.892;-123.962;2023-02-26T07:17:38;2.40;;;0.70;;
51066;SDS011;37112;45.892;-123.962;2023-02-26T07:19:51;1.00;;;0.70;;
51066;SDS011;37112;45.892;-123.962;2023-02-26T07:22:05;0.90;;;0.50;;
51066;SDS011;37112;45.892;-123.962;2023-02-26T07:24:19;1.80;;;0.60;;
51066;SDS011;37112;45.892;-123.962;2023-02-26T07:26:33;3.40;;;1.40;;
51066;SDS011;37112;45.892;-123.962;2023-02-26T07:28:47;0.70;;;0.50;;
51066;SDS011;37112;45.892;-123.962;2023-02-26T07:31:01;2.10;;;0.50;;
51066;SDS011;37112;45.892;-123.962;2023-02-26T07:33:15;4.50;;;1.70;;
51066;SDS011;37112;45.892;-123.962;2023-02-26T07:35:29;0.70;;;0.50;;
51066;SDS011;37112;45.892;-123.962;2023-02-26T07:37:43;1.00;;;0.70;;
51066;SDS011;37112;45.892;-123.962;2023-02-26T07:39:57;2.40;;;0.80;;
51066;SDS011;37112;45.892;-123.962;2023-02-26T07:42:11;1.20;;;0.70;;
51066;SDS011;37112;45.892;-123.962;2023-02-26T07:44:25;1.90;;;0.60;;
51066;SDS011;37112;45.892;-123.962;2023-02-26T07:46:38;1.30;;;0.70;;
51066;SDS011;37112;45.892;-123.962;2023-02-26T07:48:51;2.40;;;0.60;;
51066;SDS011;37112;45.892;-123.962;2023-02-26T07:51:05;3.10;;;0.70;;
51066;SDS011;37112;45.892;-123.962;2023-02-26T07:53:20;1.10;;;0.70;;
51066;SDS011;37112;45.892;-123.962;2023-02-26T07:55:33;0.60;;;0.60;;
51066;SDS011;37112;45.892;-123.962;2023-02-26T07:57:47;0.70;;;0.60;;
51066;SDS011;37112;45.892;-123.962;2023-02-26T08:00:01;2.90;;;0.60;;
51066;SDS011;37112;45.892;-123.962;2023-02-26T08:02:18;0.90;;;0.60;;
51066;SDS011;37112;45.892;-123.962;2023-02-26T08:04:32;4.60;;;1.10;;
51066;SDS011;37112;45.892;-123.962;2023-02-26T08:06:45;1.00;;;0.80;;
51066;SDS011;37112;45.892;-123.962;2023-02-26T08:09:01;4.90;;;0.70;;
51066;SDS011;37112;45.892;-123.962;2023-02-26T08:11:15;2.60;;;0.60;;
51066;SDS011;37112;45.892;-123.962;2023-02-26T08:13:29;1.10;;;0.50;;
51066;SDS011;37112;45.892;-123.962;2023-02-26T08:15:43;1.50;;;0.70;;
51066;SDS011;37112;45.892;-123.962;2023-02-26T08:17:57;3.70;;;1.00;;
51066;SDS011;37112;45.892;-123.962;2023-02-26T08:20:12;2.60;;;0.60;;
51066;SDS011;37112;45.892;-123.962;2023-02-26T08:22:25;1.40;;;0.60;;
51066;SDS011;37112;45.892;-123.962;2023-02-26T08:24:39;3.40;;;0.50;;
51066;SDS011;37112;45.892;-123.962;2023-02-26T08:26:53;3.70;;;0.50;;
51066;SDS011;37112;45.892;-123.962;2023-02-26T08:29:07;3.20;;;0.80;;
51066;SDS011;37112;45.892;-123.962;2023-02-26T08:31:20;3.90;;;0.80;;
51066;SDS011;37112;45.892;-123.962;2023-02-26T08:33:35;3.70;;;0.70;;
51066;SDS011;37112;45.892;-123.962;2023-02-26T08:35:50;1.30;;;0.50;;
51066;SDS011;37112;45.892;-123.962;2023-02-26T08:38:05;1.80;;;0.60;;
51066;SDS011;37112;45.892;-123.962;2023-02-26T08:40:19;4.30;;;0.80;;
51066;SDS011;37112;45.892;-123.962;2023-02-26T08:42:33;4.60;;;0.80;;
51066;SDS011;37112;45.892;-123.962;2023-02-26T08:44:48;1.30;;;0.60;;
51066;SDS011;37112;45.892;-123.962;2023-02-26T08:47:01;0.60;;;0.50;;
51066;SDS011;37112;45.892;-123.962;2023-02-26T08:49:14;3.10;;;0.70;;
51066;SDS011;37112;45.892;-123.962;2023-02-26T08:51:28;2.10;;;0.70;;
51066;SDS011;37112;45.892;-123.962;2023-02-26T08:53:41;4.90;;;0.70;;
51066;SDS011;37112;45.892;-123.962;2023-02-26T08:55:57;3.80;;;0.90;;
51066;SDS011;37112;45.892;-123.962;2023-02-26T08:58:11;3.00;;;1.10;;
51066;SDS011;37112;45.892;-123.962;2023-02-26T09:00:25;4.90;;;1.30;;
51066;SDS011;37112;45.892;-123.962;2023-02-26T09:02:39;10.20;;;1.80;;
51066;SDS011;37112;45.892;-123.962;2023-02-26T09:04:54;10.70;;;2.70;;
51066;SDS011;37112;45.892;-123.962;2023-02-26T09:07:07;3.80;;;0.90;;
51066;SDS011;37112;45.892;-123.962;2023-02-26T09:09:22;5.50;;;1.00;;
51066;SDS011;37112;45.892;-123.962;2023-02-26T09:11:35;8.50;;;1.10;;
51066;SDS011;37112;45.892;-123.962;2023-02-26T09:13:49;7.80;;;1.20;;
51066;SDS011;37112;45.892;-123.962;2023-02-26T09:16:02;7.10;;;1.00;;
51066;SDS011;37112;45.892;-123.962;2023-02-26T09:18:17;6.20;;;0.90;;
51066;SDS011;37112;45.892;-123.962;2023-02-26T09:20:31;14.60;;;1.50;;
51066;SDS011;37112;45.892;-123.962;2023-02-26T09:22:44;7.40;;;1.60;;
51066;SDS011;37112;45.892;-123.962;2023-02-26T09:24:58;3.00;;;1.00;;
51066;SDS011;37112;45.892;-123.962;2023-02-26T09:27:12;4.40;;;0.90;;
51066;SDS011;37112;45.892;-123.962;2023-02-26T09:29:26;11.40;;;1.50;;
51066;SDS011;37112;45.892;-123.962;2023-02-26T09:31:40;11.80;;;1.70;;
51066;SDS011;37112;45.892;-123.962;2023-02-26T09:33:53;5.90;;;0.90;;
51066;SDS011;37112;45.892;-123.962;2023-02-26T09:36:07;19.80;;;4.40;;
51066;SDS011;37112;45.892;-123.962;2023-02-26T09:38:20;23.30;;;4.10;;
51066;SDS011;37112;45.892;-123.962;2023-02-26T09:40:39;25.20;;;5.00;;
51066;SDS011;37112;45.892;-123.962;2023-02-26T09:43:09;34.00;;;6.00;;
51066;SDS011;37112;45.892;-123.962;2023-02-26T09:45:37;39.20;;;4.40;;
51066;SDS011;37112;45.892;-123.962;2023-02-26T09:47:52;27.90;;;4.30;;
51066;SDS011;37112;45.892;-123.962;2023-02-26T09:50:09;34.60;;;6.60;;
51066;SDS011;37112;45.892;-123.962;2023-02-26T09:52:29;40.40;;;7.70;;
51066;SDS011;37112;45.892;-123.962;2023-02-26T09:54:48;43.80;;;6.20;;
51066;SDS011;37112;45.892;-123.962;2023-02-26T09:57:03;32.20;;;4.40;;
51066;SDS011;37112;45.892;-123.962;2023-02-26T09:59:21;42.70;;;7.80;;
51066;SDS011;37112;45.892;-123.962;2023-02-26T10:01:36;27.90;;;4.10;;
51066;SDS011;37112;45.892;-123.962;2023-02-26T10:04:00;35.30;;;5.90;;
51066;SDS011;37112;45.892;-123.962;2023-02-26T10:06:20;16.50;;;3.30;;
51066;SDS011;37112;45.892;-123.962;2023-02-26T10:08:38;19.20;;;3.10;;
51066;SDS011;37112;45.892;-123.962;2023-02-26T10:10:57;25.30;;;4.60;;
51066;SDS011;37112;45.892;-123.962;2023-02-26T10:13:18;19.40;;;2.80;;
51066;SDS011;37112;45.892;-123.962;2023-02-26T10:15:39;24.40;;;5.70;;
51066;SDS011;37112;45.892;-123.962;2023-02-26T10:18:01;16.20;;;3.20;;
51066;SDS011;37112;45.892;-123.962;2023-02-26T10:20:19;23.70;;;5.60;;
51066;SDS011;37112;45.892;-123.962;2023-02-26T10:22:43;24.00;;;3.10;;
51066;SDS011;37112;45.892;-123.962;2023-02-26T10:25:08;15.90;;;3.60;;
51066;SDS011;37112;45.892;-123.962;2023-02-26T10:27:28;17.10;;;3.40;;
51066;SDS011;37112;45.892;-123.962;2023-02-26T10:29:52;34.10;;;4.70;;
51066;SDS011;37112;45.892;-123.962;2023-02-26T10:32:14;13.80;;;2.30;;
51066;SDS011;37112;45.892;-123.962;2023-02-26T10:34:36;20.60;;;2.90;;
51066;SDS011;37112;45.892;-123.962;2023-02-26T10:36:57;8.70;;;2.60;;
51066;SDS011;37112;45.892;-123.962;2023-02-26T10:39:18;24.50;;;3.80;;
51066;SDS011;37112;45.892;-123.962;2023-02-26T10:41:40;15.20;;;2.80;;
51066;SDS011;37112;45.892;-123.962;2023-02-26T10:43:57;28.30;;;5.00;;
51066;SDS011;37112;45.892;-123.962;2023-02-26T10:46:20;21.30;;;4.30;;
51066;SDS011;37112;45.892;-123.962;2023-02-26T10:48:54;27.10;;;4.20;;
51066;SDS011;37112;45.892;-123.962;2023-02-26T10:51:18;22.20;;;4.70;;
51066;SDS011;37112;45.892;-123.962;2023-02-26T10:53:33;22.00;;;3.40;;
51066;SDS011;37112;45.892;-123.962;2023-02-26T10:55:47;30.20;;;3.90;;
51066;SDS011;37112;45.892;-123.962;2023-02-26T10:58:06;35.70;;;3.60;;
51066;SDS011;37112;45.892;-123.962;2023-02-26T11:00:25;26.00;;;5.70;;
51066;SDS011;37112;45.892;-123.962;2023-02-26T11:02:39;18.40;;;3.20;;
51066;SDS011;37112;45.892;-123.962;2023-02-26T11:04:55;40.80;;;5.80;;
51066;SDS011;37112;45.892;-123.962;2023-02-26T11:07:13;25.90;;;3.80;;
51066;SDS011;37112;45.892;-123.962;2023-02-26T11:09:30;29.10;;;5.80;;
51066;SDS011;37112;45.892;-123.962;2023-02-26T11:11:50;25.10;;;4.90;;
51066;SDS011;37112;45.892;-123.962;2023-02-26T11:14:07;33.10;;;4.60;;
51066;SDS011;37112;45.892;-123.962;2023-02-26T11:16:21;25.90;;;4.10;;
51066;SDS011;37112;45.892;-123.962;2023-02-26T11:18:37;19.80;;;4.40;;
51066;SDS011;37112;45.892;-123.962;2023-02-26T11:20:55;23.30;;;5.00;;
51066;SDS011;37112;45.892;-123.962;2023-02-26T11:23:11;26.80;;;3.80;;
51066;SDS011;37112;45.892;-123.962;2023-02-26T11:25:28;33.60;;;6.00;;
51066;SDS011;37112;45.892;-123.962;2023-02-26T11:27:43;19.90;;;3.70;;
51066;SDS011;37112;45.892;-123.962;2023-02-26T11:30:00;24.40;;;3.30;;
51066;SDS011;37112;45.892;-123.962;2023-02-26T11:32:21;22.40;;;3.00;;
51066;SDS011;37112;45.892;-123.962;2023-02-26T11:34:40;32.10;;;3.60;;
51066;SDS011;37112;45.892;-123.962;2023-02-26T11:37:00;23.80;;;3.60;;
51066;SDS011;37112;45.892;-123.962;2023-02-26T11:39:15;27.70;;;3.80;;
51066;SDS011;37112;45.892;-123.962;2023-02-26T11:41:34;28.40;;;3.50;;
51066;SDS011;37112;45.892;-123.962;2023-02-26T11:43:54;28.70;;;2.80;;
51066;SDS011;37112;45.892;-123.962;2023-02-26T11:46:12;37.60;;;8.20;;
51066;SDS011;37112;45.892;-123.962;2023-02-26T11:48:28;17.50;;;2.80;;
51066;SDS011;37112;45.892;-123.962;2023-02-26T11:50:48;34.80;;;4.60;;
51066;SDS011;37112;45.892;-123.962;2023-02-26T11:53:15;21.30;;;3.40;;
51066;SDS011;37112;45.892;-123.962;2023-02-26T11:55:30;21.20;;;4.00;;
51066;SDS011;37112;45.892;-123.962;2023-02-26T11:57:47;33.60;;;5.20;;
51066;SDS011;37112;45.892;-123.962;2023-02-26T12:00:15;51.50;;;7.10;;
51066;SDS011;37112;45.892;-123.962;2023-02-26T12:02:34;25.70;;;3.30;;
51066;SDS011;37112;45.892;-123.962;2023-02-26T12:04:52;19.50;;;3.10;;
51066;SDS011;37112;45.892;-123.962;2023-02-26T12:07:09;40.90;;;5.90;;
51066;SDS011;37112;45.892;-123.962;2023-02-26T12:09:25;39.90;;;4.30;;
51066;SDS011;37112;45.892;-123.962;2023-02-26T12:11:50;31.20;;;4.10;;
51066;SDS011;37112;45.892;-123.962;2023-02-26T12:14:24;31.20;;;3.50;;
51066;SDS011;37112;45.892;-123.962;2023-02-26T12:17:12;16.50;;;3.10;;
51066;SDS011;37112;45.892;-123.962;2023-02-26T12:19:39;26.70;;;4.30;;
51066;SDS011;37112;45.892;-123.962;2023-02-26T12:24:54;42.90;;;4.80;;
51066;SDS011;37112;45.892;-123.962;2023-02-26T12:27:30;32.60;;;5.50;;
51066;SDS011;37112;45.892;-123.962;2023-02-26T12:29:54;31.90;;;4.50;;
51066;SDS011;37112;45.892;-123.962;2023-02-26T12:32:32;15.10;;;3.20;;
51066;SDS011;37112;45.892;-123.962;2023-02-26T12:37:46;45.60;;;6.30;;
51066;SDS011;37112;45.892;-123.962;2023-02-26T12:40:14;29.70;;;4.30;;
51066;SDS011;37112;45.892;-123.962;2023-02-26T12:42:43;23.30;;;4.40;;
51066;SDS011;37112;45.892;-123.962;2023-02-26T12:45:11;16.90;;;5.30;;
51066;SDS011;37112;45.892;-123.962;2023-02-26T12:47:45;25.00;;;3.60;;
51066;SDS011;37112;45.892;-123.962;2023-02-26T12:50:30;28.30;;;4.80;;
51066;SDS011;37112;45.892;-123.962;2023-02-26T12:55:41;34.30;;;3.30;;
51066;SDS011;37112;45.892;-123.962;2023-02-26T12:58:21;25.40;;;4.90;;
51066;SDS011;37112;45.892;-123.962;2023-02-26T13:00:49;42.30;;;5.50;;
51066;SDS011;37112;45.892;-123.962;2023-02-26T13:06:04;18.30;;;2.60;;
51066;SDS011;37112;45.892;-123.962;2023-02-26T13:08:42;25.50;;;3.90;;
51066;SDS011;37112;45.892;-123.962;2023-02-26T13:11:06;23.20;;;3.60;;
51066;SDS011;37112;45.892;-123.962;2023-02-26T13:13:36;53.80;;;9.30;;
51066;SDS011;37112;45.892;-123.962;2023-02-26T13:16:04;27.40;;;4.20;;
51066;SDS011;37112;45.892;-123.962;2023-02-26T13:18:26;28.50;;;4.40;;
51066;SDS011;37112;45.892;-123.962;2023-02-26T13:20:48;11.40;;;3.20;;
51066;SDS011;37112;45.892;-123.962;2023-02-26T13:23:08;30.00;;;4.60;;
51066;SDS011;37112;45.892;-123.962;2023-02-26T13:25:28;19.50;;;4.30;;
51066;SDS011;37112;45.892;-123.962;2023-02-26T13:27:46;42.80;;;5.50;;